createdAt,value
2016-09-03T00:00:51.385Z,0
2016-09-03T00:01:50.641Z,0
2016-09-03T00:02:50.633Z,0
2016-09-03T00:03:49.997Z,0
2016-09-03T00:04:50.617Z,0
2016-09-03T00:05:51.323Z,0
2016-09-03T00:06:50.598Z,0
2016-09-03T00:07:49.168Z,0
2016-09-03T00:08:51.311Z,0
2016-09-03T00:09:50.548Z,0
2016-09-03T00:10:51.267Z,0
2016-09-03T00:11:49.099Z,0
2016-09-03T00:12:49.829Z,0
2016-09-03T00:13:51.221Z,0
2016-09-03T00:14:51.209Z,0
2016-09-03T00:15:51.180Z,0
2016-09-03T00:16:49.749Z,0
2016-09-03T00:17:49.754Z,0
2016-09-03T00:18:51.157Z,0
2016-09-03T00:19:51.151Z,0
2016-09-03T00:20:50.407Z,0
2016-09-03T00:21:51.123Z,0
2016-09-03T00:22:50.397Z,0
2016-09-03T00:23:50.391Z,0
2016-09-03T00:24:50.391Z,0
2016-09-03T00:25:51.057Z,0
2016-09-03T00:26:50.338Z,0
2016-09-03T00:27:50.329Z,0
2016-09-03T00:28:50.332Z,0
2016-09-03T00:29:51.052Z,0
2016-09-03T00:30:48.873Z,0
2016-09-03T00:31:49.579Z,0
2016-09-03T00:32:49.572Z,0
2016-09-03T00:33:50.343Z,0
2016-09-03T00:34:50.260Z,0
2016-09-03T00:35:50.318Z,0
2016-09-03T00:36:50.949Z,0
2016-09-03T00:37:50.237Z,0
2016-09-03T00:38:49.468Z,0
2016-09-03T00:39:50.342Z,0
2016-09-03T00:40:50.192Z,0
2016-09-03T00:41:49.447Z,0
2016-09-03T00:42:50.878Z,0
2016-09-03T00:43:50.877Z,0
2016-09-03T00:44:50.836Z,0
2016-09-03T00:45:50.827Z,0
2016-09-03T00:46:50.182Z,0
2016-09-03T00:47:50.092Z,0
2016-09-03T00:48:50.062Z,0
2016-09-03T00:49:50.791Z,0
2016-09-03T00:50:50.049Z,0
2016-09-03T00:51:50.038Z,0
2016-09-03T00:52:50.039Z,0
2016-09-03T00:53:49.292Z,0
2016-09-03T00:54:50.705Z,0
2016-09-03T00:55:50.733Z,0
2016-09-03T00:56:49.979Z,0
2016-09-03T00:57:49.970Z,0
2016-09-03T00:58:50.668Z,0
2016-09-03T00:59:50.659Z,0
2016-09-03T01:00:49.940Z,0
2016-09-03T01:01:50.682Z,0
2016-09-03T01:02:50.630Z,0
2016-09-03T01:03:49.896Z,0
2016-09-03T01:04:50.594Z,0
2016-09-03T01:05:50.596Z,0
2016-09-03T01:06:49.229Z,0
2016-09-03T01:07:49.859Z,0
2016-09-03T01:08:50.565Z,0
2016-09-03T01:09:49.121Z,0
2016-09-03T01:10:49.811Z,0
2016-09-03T01:11:50.505Z,0
2016-09-03T01:12:50.501Z,0
2016-09-03T01:13:49.760Z,0
2016-09-03T01:14:50.472Z,0
2016-09-03T01:15:50.470Z,0
2016-09-03T01:16:49.762Z,0
2016-09-03T01:17:48.999Z,0
2016-09-03T01:18:49.786Z,0
2016-09-03T01:19:47.671Z,0
2016-09-03T01:20:49.694Z,0
2016-09-03T01:21:49.670Z,0
2016-09-03T01:22:48.967Z,0
2016-09-03T01:23:48.942Z,0
2016-09-03T01:24:49.742Z,0
2016-09-03T01:25:50.343Z,0
2016-09-03T01:26:50.332Z,0
2016-09-03T01:27:48.869Z,0
2016-09-03T01:28:49.592Z,0
2016-09-03T01:29:48.862Z,0
2016-09-03T01:30:49.567Z,0
2016-09-03T01:31:50.289Z,0
2016-09-03T01:32:49.534Z,0
2016-09-03T01:33:48.809Z,0
2016-09-03T01:34:50.237Z,0
2016-09-03T01:35:49.520Z,0
2016-09-03T01:36:49.483Z,0
2016-09-03T01:37:48.767Z,0
2016-09-03T01:38:49.523Z,0
2016-09-03T01:39:48.732Z,0
2016-09-03T01:40:49.535Z,0
2016-09-03T01:41:50.129Z,0
2016-09-03T01:42:49.452Z,0
2016-09-03T01:43:50.100Z,0
2016-09-03T01:44:50.249Z,0
2016-09-03T01:45:49.388Z,0
2016-09-03T01:46:50.193Z,0
2016-09-03T01:47:50.084Z,0
2016-09-03T01:48:50.111Z,0
2016-09-03T01:49:50.032Z,0
2016-09-03T01:50:49.359Z,0
2016-09-03T01:51:48.563Z,0
2016-09-03T01:52:48.560Z,0
2016-09-03T01:53:49.290Z,0
2016-09-03T01:54:49.261Z,0
2016-09-03T01:55:49.956Z,0
2016-09-03T01:56:49.957Z,0
2016-09-03T01:57:49.948Z,0
2016-09-03T01:58:48.483Z,0
2016-09-03T01:59:49.183Z,0
2016-09-03T02:00:49.237Z,0
2016-09-03T02:01:49.190Z,0
2016-09-03T02:02:49.158Z,0
2016-09-03T02:03:49.138Z,0
2016-09-03T02:04:49.896Z,0
2016-09-03T02:05:49.110Z,0
2016-09-03T02:06:50.302Z,0
2016-09-03T02:07:49.090Z,0
2016-09-03T02:08:49.092Z,0
2016-09-03T02:09:48.348Z,0
2016-09-03T02:10:48.358Z,0
2016-09-03T02:11:49.047Z,0
2016-09-03T02:12:49.766Z,0
2016-09-03T02:13:48.308Z,0
2016-09-03T02:14:49.747Z,0
2016-09-03T02:15:49.008Z,0
2016-09-03T02:16:47.550Z,0
2016-09-03T02:17:49.689Z,0
2016-09-03T02:18:49.720Z,0
2016-09-03T02:19:49.657Z,0
2016-09-03T02:20:48.938Z,0
2016-09-03T02:21:49.617Z,0
2016-09-03T02:22:48.974Z,0
2016-09-03T02:23:48.887Z,0
2016-09-03T02:24:48.878Z,0
2016-09-03T02:25:48.858Z,0
2016-09-03T02:26:48.858Z,0
2016-09-03T02:27:48.862Z,0
2016-09-03T02:28:48.831Z,0
2016-09-03T02:29:49.546Z,0
2016-09-03T02:30:48.800Z,0
2016-09-03T02:31:48.779Z,0
2016-09-03T02:32:48.067Z,0
2016-09-03T02:33:48.817Z,0
2016-09-03T02:34:49.480Z,0
2016-09-03T02:35:48.017Z,0
2016-09-03T02:36:49.502Z,0
2016-09-03T02:37:49.441Z,0
2016-09-03T02:38:48.698Z,0
2016-09-03T02:39:49.390Z,0
2016-09-03T02:40:49.396Z,0
2016-09-03T02:41:48.658Z,0
2016-09-03T02:42:49.360Z,0
2016-09-03T02:43:48.637Z,0
2016-09-03T02:44:49.355Z,0
2016-09-03T02:45:49.317Z,0
2016-09-03T02:46:48.588Z,0
2016-09-03T02:47:49.296Z,0
2016-09-03T02:48:49.282Z,0
2016-09-03T02:49:49.250Z,0
2016-09-03T02:50:47.828Z,0
2016-09-03T02:51:49.347Z,0
2016-09-03T02:52:48.508Z,0
2016-09-03T02:53:48.586Z,0
2016-09-03T02:54:48.498Z,0
2016-09-03T02:55:49.180Z,0
2016-09-03T02:56:49.170Z,0
2016-09-03T02:57:47.768Z,0
2016-09-03T02:58:49.161Z,0
2016-09-03T02:59:48.407Z,0
2016-09-03T03:00:48.427Z,0
2016-09-03T03:01:49.124Z,0
2016-09-03T03:02:49.110Z,0
2016-09-03T03:03:47.671Z,0
2016-09-03T03:04:48.358Z,0
2016-09-03T03:05:49.111Z,0
2016-09-03T03:06:48.330Z,0
2016-09-03T03:07:49.091Z,0
2016-09-03T03:08:47.588Z,0
2016-09-03T03:09:49.017Z,0
2016-09-03T03:10:48.989Z,0
2016-09-03T03:11:48.304Z,0
2016-09-03T03:12:48.272Z,0
2016-09-03T03:13:48.242Z,0
2016-09-03T03:14:48.939Z,0
2016-09-03T03:15:48.920Z,0
2016-09-03T03:16:48.899Z,0
2016-09-03T03:17:48.207Z,0
2016-09-03T03:18:47.481Z,0
2016-09-03T03:19:48.893Z,0
2016-09-03T03:20:47.431Z,0
2016-09-03T03:21:48.138Z,0
2016-09-03T03:22:48.112Z,0
2016-09-03T03:23:48.110Z,0
2016-09-03T03:24:48.810Z,0
2016-09-03T03:25:48.803Z,0
2016-09-03T03:26:48.065Z,0
2016-09-03T03:27:48.864Z,0
2016-09-03T03:28:48.028Z,0
2016-09-03T03:29:47.289Z,0
2016-09-03T03:30:48.739Z,0
2016-09-03T03:31:48.000Z,0
2016-09-03T03:32:48.717Z,0
2016-09-03T03:33:47.250Z,0
2016-09-03T03:34:46.624Z,0
2016-09-03T03:35:47.210Z,0
2016-09-03T03:36:47.938Z,0
2016-09-03T03:37:48.622Z,0
2016-09-03T03:38:47.907Z,0
2016-09-03T03:39:48.592Z,0
2016-09-03T03:40:48.579Z,0
2016-09-03T03:41:48.571Z,0
2016-09-03T03:42:48.565Z,0
2016-09-03T03:43:47.126Z,0
2016-09-03T03:44:47.824Z,0
2016-09-03T03:45:48.551Z,0
2016-09-03T03:46:47.785Z,0
2016-09-03T03:47:48.501Z,0
2016-09-03T03:48:48.468Z,0
2016-09-03T03:49:47.811Z,0
2016-09-03T03:50:47.033Z,0
2016-09-03T03:51:47.752Z,0
2016-09-03T03:52:47.792Z,0
2016-09-03T03:53:47.680Z,0
2016-09-03T03:54:48.391Z,0
2016-09-03T03:55:47.700Z,0
2016-09-03T03:56:48.359Z,0
2016-09-03T03:57:47.655Z,0
2016-09-03T03:58:48.352Z,0
2016-09-03T03:59:46.899Z,0
2016-09-03T04:00:48.343Z,0
2016-09-03T04:01:48.293Z,0
2016-09-03T04:02:47.612Z,0
2016-09-03T04:03:46.859Z,0
2016-09-03T04:04:47.549Z,0
2016-09-03T04:05:47.531Z,0
2016-09-03T04:06:48.247Z,0
2016-09-03T04:07:47.488Z,0
2016-09-03T04:08:47.512Z,0
2016-09-03T04:09:48.182Z,0
2016-09-03T04:10:47.528Z,0
2016-09-03T04:11:48.173Z,0
2016-09-03T04:12:48.152Z,0
2016-09-03T04:13:48.140Z,0
2016-09-03T04:14:48.201Z,0
2016-09-03T04:15:48.106Z,0
2016-09-03T04:16:48.097Z,0
2016-09-03T04:17:48.082Z,0
2016-09-03T04:18:48.063Z,0
2016-09-03T04:19:48.071Z,0
2016-09-03T04:20:46.702Z,0
2016-09-03T04:21:47.321Z,0
2016-09-03T04:22:47.421Z,0
2016-09-03T04:23:47.351Z,0
2016-09-03T04:24:48.081Z,0
2016-09-03T04:25:47.971Z,0
2016-09-03T04:26:47.303Z,0
2016-09-03T04:27:46.520Z,0
2016-09-03T04:28:47.250Z,0
2016-09-03T04:29:47.912Z,0
2016-09-03T04:30:47.258Z,0
2016-09-03T04:31:47.900Z,0
2016-09-03T04:32:46.499Z,0
2016-09-03T04:33:47.162Z,0
2016-09-03T04:34:47.890Z,0
2016-09-03T04:35:47.841Z,0
2016-09-03T04:36:47.810Z,0
2016-09-03T04:37:47.091Z,0
2016-09-03T04:38:47.159Z,0
2016-09-03T04:39:47.793Z,0
2016-09-03T04:40:47.081Z,0
2016-09-03T04:41:47.742Z,0
2016-09-03T04:42:47.766Z,0
2016-09-03T04:43:47.008Z,0
2016-09-03T04:44:47.008Z,0
2016-09-03T04:45:46.986Z,0
2016-09-03T04:46:47.743Z,0
2016-09-03T04:47:47.690Z,0
2016-09-03T04:48:46.932Z,0
2016-09-03T04:49:46.911Z,0
2016-09-03T04:50:47.662Z,0
2016-09-03T04:51:46.900Z,0
2016-09-03T04:52:47.650Z,5
2016-09-03T04:53:47.602Z,5
2016-09-03T04:54:47.567Z,5
2016-09-03T04:55:46.122Z,5
2016-09-03T04:56:47.546Z,5
2016-09-03T04:57:47.531Z,5
2016-09-03T04:58:47.541Z,5
2016-09-03T04:59:47.513Z,5
2016-09-03T05:00:46.803Z,5
2016-09-03T05:01:46.051Z,5
2016-09-03T05:02:46.748Z,5
2016-09-03T05:03:46.741Z,10
2016-09-03T05:04:47.433Z,10
2016-09-03T05:05:47.420Z,10
2016-09-03T05:06:46.689Z,10
2016-09-03T05:07:45.973Z,10
2016-09-03T05:08:46.662Z,10
2016-09-03T05:09:47.356Z,10
2016-09-03T05:10:47.372Z,15
2016-09-03T05:11:47.341Z,15
2016-09-03T05:12:47.321Z,15
2016-09-03T05:13:47.316Z,15
2016-09-03T05:14:47.341Z,15
2016-09-03T05:15:46.571Z,15
2016-09-03T05:16:46.632Z,20
2016-09-03T05:17:46.551Z,20
2016-09-03T05:18:47.262Z,20
2016-09-03T05:19:45.849Z,20
2016-09-03T05:20:47.258Z,25
2016-09-03T05:21:47.212Z,25
2016-09-03T05:22:47.238Z,25
2016-09-03T05:23:46.529Z,25
2016-09-03T05:24:46.447Z,25
2016-09-03T05:25:47.149Z,30
2016-09-03T05:26:47.136Z,30
2016-09-03T05:27:46.436Z,30
2016-09-03T05:28:46.378Z,30
2016-09-03T05:29:45.860Z,35
2016-09-03T05:30:46.351Z,35
2016-09-03T05:31:47.087Z,35
2016-09-03T05:32:47.052Z,35
2016-09-03T05:33:46.390Z,35
2016-09-03T05:34:47.031Z,35
2016-09-03T05:35:47.011Z,35
2016-09-03T05:36:47.011Z,35
2016-09-03T05:37:46.277Z,40
2016-09-03T05:38:46.251Z,40
2016-09-03T05:39:46.960Z,40
2016-09-03T05:40:46.931Z,40
2016-09-03T05:41:46.219Z,45
2016-09-03T05:42:46.212Z,45
2016-09-03T05:43:46.262Z,45
2016-09-03T05:44:46.169Z,45
2016-09-03T05:45:46.183Z,45
2016-09-03T05:46:46.857Z,45
2016-09-03T05:47:46.234Z,50
2016-09-03T05:48:46.823Z,50
2016-09-03T05:49:46.854Z,50
2016-09-03T05:50:46.090Z,55
2016-09-03T05:51:46.842Z,55
2016-09-03T05:52:46.072Z,55
2016-09-03T05:53:45.349Z,55
2016-09-03T05:54:46.751Z,55
2016-09-03T05:55:46.040Z,55
2016-09-03T05:56:46.719Z,60
2016-09-03T05:57:46.735Z,60
2016-09-03T05:58:45.968Z,65
2016-09-03T05:59:46.791Z,70
2016-09-03T06:00:46.665Z,65
2016-09-03T06:01:46.740Z,65
2016-09-03T06:02:46.634Z,70
2016-09-03T06:03:46.689Z,70
2016-09-03T06:04:45.892Z,65
2016-09-03T06:05:46.619Z,65
2016-09-03T06:06:46.598Z,65
2016-09-03T06:07:45.148Z,60
2016-09-03T06:08:44.411Z,50
2016-09-03T06:09:46.603Z,45
2016-09-03T06:10:46.520Z,40
2016-09-03T06:11:45.789Z,40
2016-09-03T06:12:46.512Z,35
2016-09-03T06:13:45.785Z,35
2016-09-03T06:14:45.758Z,35
2016-09-03T06:15:45.061Z,35
2016-09-03T06:16:45.719Z,35
2016-09-03T06:17:45.738Z,45
2016-09-03T06:18:46.419Z,50
2016-09-03T06:19:46.419Z,55
2016-09-03T06:20:44.949Z,50
2016-09-03T06:21:46.414Z,50
2016-09-03T06:22:46.363Z,50
2016-09-03T06:23:45.650Z,50
2016-09-03T06:24:46.334Z,50
2016-09-03T06:25:45.621Z,50
2016-09-03T06:26:45.605Z,50
2016-09-03T06:27:46.296Z,50
2016-09-03T06:28:45.666Z,50
2016-09-03T06:29:46.300Z,55
2016-09-03T06:30:46.277Z,55
2016-09-03T06:31:44.810Z,60
2016-09-03T06:32:45.534Z,60
2016-09-03T06:33:45.547Z,65
2016-09-03T06:34:45.489Z,70
2016-09-03T06:35:46.243Z,75
2016-09-03T06:36:44.750Z,75
2016-09-03T06:37:45.469Z,80
2016-09-03T06:38:44.738Z,90
2016-09-03T06:39:44.731Z,100
2016-09-03T06:40:46.131Z,105
2016-09-03T06:41:46.151Z,115
2016-09-03T06:42:45.380Z,115
2016-09-03T06:43:46.095Z,110
2016-09-03T06:44:46.078Z,110
2016-09-03T06:45:46.069Z,105
2016-09-03T06:46:45.337Z,100
2016-09-03T06:47:46.053Z,100
2016-09-03T06:48:45.310Z,100
2016-09-03T06:49:44.598Z,105
2016-09-03T06:50:45.986Z,100
2016-09-03T06:51:45.989Z,100
2016-09-03T06:52:45.975Z,105
2016-09-03T06:53:45.961Z,110
2016-09-03T06:54:45.234Z,120
2016-09-03T06:55:45.230Z,130
2016-09-03T06:56:44.509Z,145
2016-09-03T06:57:45.193Z,150
2016-09-03T06:58:44.449Z,155
2016-09-03T06:59:44.451Z,155
2016-09-03T07:00:45.879Z,150
2016-09-03T07:01:45.150Z,150
2016-09-03T07:02:43.676Z,160
2016-09-03T07:03:45.838Z,175
2016-09-03T07:04:45.830Z,200
2016-09-03T07:05:45.092Z,190
2016-09-03T07:06:45.780Z,155
2016-09-03T07:07:44.342Z,190
2016-09-03T07:08:45.053Z,195
2016-09-03T07:09:45.740Z,200
2016-09-03T07:10:45.848Z,135
2016-09-03T07:11:45.052Z,120
2016-09-03T07:12:45.102Z,120
2016-09-03T07:13:45.377Z,125
2016-09-03T07:14:45.110Z,140
2016-09-03T07:15:45.233Z,145
2016-09-03T07:16:45.980Z,145
2016-09-03T07:17:46.222Z,155
2016-09-03T07:18:46.067Z,155
2016-09-03T07:19:46.104Z,170
2016-09-03T07:20:44.728Z,185
2016-09-03T07:21:45.668Z,200
2016-09-03T07:22:45.134Z,210
2016-09-03T07:23:45.072Z,210
2016-09-03T07:24:46.392Z,210
2016-09-03T07:25:46.394Z,200
2016-09-03T07:26:46.300Z,215
2016-09-03T07:27:45.371Z,230
2016-09-03T07:28:45.450Z,230
2016-09-03T07:29:46.177Z,235
2016-09-03T07:30:46.551Z,240
2016-09-03T07:31:45.643Z,245
2016-09-03T07:32:44.200Z,255
2016-09-03T07:33:45.717Z,255
2016-09-03T07:34:45.715Z,270
2016-09-03T07:35:45.738Z,275
2016-09-03T07:36:45.770Z,290
2016-09-03T07:37:46.551Z,285
2016-09-03T07:38:44.952Z,260
2016-09-03T07:39:45.702Z,320
2016-09-03T07:40:45.720Z,800
2016-09-03T07:41:45.689Z,1020
2016-09-03T07:42:44.910Z,915
2016-09-03T07:43:46.510Z,360
2016-09-03T07:44:46.591Z,375
2016-09-03T07:45:45.710Z,525
2016-09-03T07:46:44.880Z,410
2016-09-03T07:47:44.880Z,460
2016-09-03T07:48:45.667Z,510
2016-09-03T07:49:46.438Z,755
2016-09-03T07:50:45.729Z,745
2016-09-03T07:51:45.690Z,765
2016-09-03T07:52:45.669Z,1115
2016-09-03T07:53:45.218Z,830
2016-09-03T07:54:46.492Z,985
2016-09-03T07:55:44.859Z,1060
2016-09-03T07:56:46.471Z,850
2016-09-03T07:57:46.420Z,1015
2016-09-03T07:58:45.596Z,920
2016-09-03T07:59:45.684Z,865
2016-09-03T08:00:46.301Z,1090
2016-09-03T08:01:45.960Z,1300
2016-09-03T08:02:44.551Z,1065
2016-09-03T08:03:44.997Z,995
2016-09-03T08:04:44.994Z,995
2016-09-03T08:05:45.082Z,925
2016-09-03T08:06:44.892Z,930
2016-09-03T08:07:45.474Z,945
2016-09-03T08:08:45.401Z,355
2016-09-03T08:09:45.348Z,360
2016-09-03T08:10:43.917Z,345
2016-09-03T08:11:45.200Z,330
2016-09-03T08:12:44.438Z,345
2016-09-03T08:13:44.454Z,370
2016-09-03T08:14:43.817Z,420
2016-09-03T08:15:44.458Z,355
2016-09-03T08:16:43.891Z,270
2016-09-03T08:17:44.610Z,245
2016-09-03T08:18:43.816Z,240
2016-09-03T08:19:44.418Z,245
2016-09-03T08:20:43.779Z,240
2016-09-03T08:21:44.360Z,305
2016-09-03T08:22:43.779Z,395
2016-09-03T08:23:45.161Z,305
2016-09-03T08:24:43.776Z,320
2016-09-03T08:25:45.159Z,250
2016-09-03T08:26:45.059Z,180
2016-09-03T08:27:44.498Z,160
2016-09-03T08:28:44.509Z,155
2016-09-03T08:29:43.677Z,195
2016-09-03T08:30:45.095Z,675
2016-09-03T08:31:43.563Z,325
2016-09-03T08:32:45.011Z,280
2016-09-03T08:33:44.997Z,265
2016-09-03T08:34:45.019Z,160
2016-09-03T08:35:45.199Z,155
2016-09-03T08:36:44.427Z,155
2016-09-03T08:37:44.396Z,170
2016-09-03T08:38:44.318Z,210
2016-09-03T08:39:44.669Z,245
2016-09-03T08:40:43.906Z,235
2016-09-03T08:41:44.626Z,300
2016-09-03T08:42:44.950Z,225
2016-09-03T08:43:45.167Z,190
2016-09-03T08:44:44.432Z,220
2016-09-03T08:45:44.996Z,275
2016-09-03T08:46:45.034Z,270
2016-09-03T08:47:43.437Z,265
2016-09-03T08:48:44.239Z,265
2016-09-03T08:49:44.107Z,195
2016-09-03T08:50:44.931Z,185
2016-09-03T08:51:43.520Z,175
2016-09-03T08:52:43.395Z,150
2016-09-03T08:53:44.878Z,135
2016-09-03T08:54:43.510Z,125
2016-09-03T08:55:44.821Z,120
2016-09-03T08:56:43.316Z,140
2016-09-03T08:57:43.389Z,210
2016-09-03T08:58:43.347Z,265
2016-09-03T08:59:44.012Z,310
2016-09-03T09:00:44.767Z,230
2016-09-03T09:01:44.029Z,160
2016-09-03T09:02:43.346Z,120
2016-09-03T09:03:43.320Z,95
2016-09-03T09:04:44.702Z,85
2016-09-03T09:05:44.660Z,80
2016-09-03T09:06:43.940Z,85
2016-09-03T09:07:43.920Z,90
2016-09-03T09:08:43.979Z,85
2016-09-03T09:09:43.896Z,85
2016-09-03T09:10:43.317Z,80
2016-09-03T09:11:44.588Z,80
2016-09-03T09:12:42.434Z,80
2016-09-03T09:13:43.847Z,85
2016-09-03T09:14:43.847Z,90
2016-09-03T09:15:43.822Z,90
2016-09-03T09:16:44.577Z,85
2016-09-03T09:17:43.198Z,85
2016-09-03T09:18:43.098Z,90
2016-09-03T09:19:44.520Z,100
2016-09-03T09:20:42.468Z,115
2016-09-03T09:21:44.475Z,115
2016-09-03T09:22:43.780Z,115
2016-09-03T09:23:43.746Z,95
2016-09-03T09:24:43.753Z,80
2016-09-03T09:25:44.444Z,80
2016-09-03T09:26:43.121Z,100
2016-09-03T09:27:43.096Z,110
2016-09-03T09:28:43.747Z,100
2016-09-03T09:29:43.727Z,95
2016-09-03T09:30:42.967Z,90
2016-09-03T09:31:42.956Z,95
2016-09-03T09:32:44.388Z,90
2016-09-03T09:33:43.731Z,80
2016-09-03T09:34:43.617Z,80
2016-09-03T09:35:43.614Z,80
2016-09-03T09:36:44.348Z,80
2016-09-03T09:37:43.593Z,75
2016-09-03T09:38:43.586Z,70
2016-09-03T09:39:43.590Z,65
2016-09-03T09:40:44.275Z,65
2016-09-03T09:41:43.626Z,60
2016-09-03T09:42:43.553Z,55
2016-09-03T09:43:43.511Z,60
2016-09-03T09:44:43.550Z,65
2016-09-03T09:45:43.578Z,65
2016-09-03T09:46:44.217Z,75
2016-09-03T09:47:42.767Z,85
2016-09-03T09:48:42.759Z,100
2016-09-03T09:49:43.476Z,95
2016-09-03T09:50:43.442Z,80
2016-09-03T09:51:43.511Z,75
2016-09-03T09:52:43.437Z,80
2016-09-03T09:53:44.116Z,80
2016-09-03T09:54:44.109Z,90
2016-09-03T09:55:44.124Z,95
2016-09-03T09:56:42.757Z,90
2016-09-03T09:57:43.381Z,95
2016-09-03T09:58:42.640Z,95
2016-09-03T09:59:44.133Z,90
2016-09-03T10:00:44.058Z,90
2016-09-03T10:01:44.088Z,80
2016-09-03T10:02:41.893Z,85
2016-09-03T10:03:44.079Z,90
2016-09-03T10:04:44.117Z,90
2016-09-03T10:05:43.360Z,90
2016-09-03T10:06:43.339Z,80
2016-09-03T10:07:42.569Z,70
2016-09-03T10:08:43.246Z,65
2016-09-03T10:09:43.987Z,60
2016-09-03T10:10:44.174Z,60
2016-09-03T10:11:43.267Z,70
2016-09-03T10:12:43.945Z,75
2016-09-03T10:13:43.205Z,75
2016-09-03T10:14:43.900Z,75
2016-09-03T10:15:43.934Z,75
2016-09-03T10:16:41.780Z,80
2016-09-03T10:17:42.488Z,80
2016-09-03T10:18:43.886Z,80
2016-09-03T10:19:42.410Z,80
2016-09-03T10:20:42.401Z,80
2016-09-03T10:21:43.104Z,85
2016-09-03T10:22:42.415Z,95
2016-09-03T10:23:43.071Z,105
2016-09-03T10:24:43.793Z,120
2016-09-03T10:25:42.328Z,145
2016-09-03T10:26:42.312Z,170
2016-09-03T10:27:42.323Z,230
2016-09-03T10:28:43.730Z,385
2016-09-03T10:29:43.697Z,420
2016-09-03T10:30:42.332Z,405
2016-09-03T10:31:43.685Z,320
2016-09-03T10:32:42.993Z,230
2016-09-03T10:33:42.965Z,180
2016-09-03T10:34:42.977Z,185
2016-09-03T10:35:42.959Z,200
2016-09-03T10:36:42.210Z,235
2016-09-03T10:37:43.636Z,285
2016-09-03T10:38:43.641Z,320
2016-09-03T10:39:42.945Z,310
2016-09-03T10:40:43.617Z,335
2016-09-03T10:41:42.861Z,320
2016-09-03T10:42:43.600Z,300
2016-09-03T10:43:43.566Z,275
2016-09-03T10:44:42.836Z,265
2016-09-03T10:45:42.108Z,265
2016-09-03T10:46:42.898Z,230
2016-09-03T10:47:42.803Z,195
2016-09-03T10:48:43.557Z,170
2016-09-03T10:49:41.347Z,170
2016-09-03T10:50:43.486Z,170
2016-09-03T10:51:42.791Z,175
2016-09-03T10:52:42.766Z,175
2016-09-03T10:53:43.495Z,200
2016-09-03T10:54:42.758Z,220
2016-09-03T10:55:43.440Z,215
2016-09-03T10:56:42.724Z,215
2016-09-03T10:57:42.726Z,220
2016-09-03T10:58:41.958Z,215
2016-09-03T10:59:42.690Z,200
2016-09-03T11:00:41.969Z,210
2016-09-03T11:01:43.384Z,250
2016-09-03T11:02:41.940Z,275
2016-09-03T11:03:42.648Z,255
2016-09-03T11:04:43.383Z,230
2016-09-03T11:05:41.918Z,235
2016-09-03T11:06:42.616Z,215
2016-09-03T11:07:43.339Z,185
2016-09-03T11:08:42.602Z,165
2016-09-03T11:09:43.317Z,165
2016-09-03T11:10:42.580Z,165
2016-09-03T11:11:41.857Z,155
2016-09-03T11:12:42.559Z,185
2016-09-03T11:13:42.547Z,200
2016-09-03T11:14:41.810Z,220
2016-09-03T11:15:43.240Z,225
2016-09-03T11:16:42.524Z,205
2016-09-03T11:17:42.509Z,190
2016-09-03T11:18:41.787Z,190
2016-09-03T11:19:41.770Z,190
2016-09-03T11:20:43.206Z,190
2016-09-03T11:21:43.187Z,190
2016-09-03T11:22:42.440Z,190
2016-09-03T11:23:41.017Z,195
2016-09-03T11:24:43.156Z,200
2016-09-03T11:25:42.517Z,205
2016-09-03T11:26:41.710Z,210
2016-09-03T11:27:43.122Z,210
2016-09-03T11:28:43.101Z,230
2016-09-03T11:29:42.385Z,245
2016-09-03T11:30:42.381Z,260
2016-09-03T11:31:43.088Z,395
2016-09-03T11:32:43.076Z,420
2016-09-03T11:33:41.734Z,325
2016-09-03T11:34:42.346Z,260
2016-09-03T11:35:42.417Z,275
2016-09-03T11:36:41.681Z,245
2016-09-03T11:37:42.368Z,235
2016-09-03T11:38:43.006Z,220
2016-09-03T11:39:42.324Z,200
2016-09-03T11:40:42.266Z,190
2016-09-03T11:41:42.298Z,195
2016-09-03T11:42:42.990Z,210
2016-09-03T11:43:42.980Z,240
2016-09-03T11:44:41.547Z,305
2016-09-03T11:45:42.226Z,260
2016-09-03T11:46:42.949Z,215
2016-09-03T11:47:42.995Z,195
2016-09-03T11:48:42.917Z,185
2016-09-03T11:49:42.929Z,175
2016-09-03T11:50:42.912Z,170
2016-09-03T11:51:42.177Z,170
2016-09-03T11:52:41.456Z,170
2016-09-03T11:53:42.248Z,165
2016-09-03T11:54:42.155Z,140
2016-09-03T11:55:42.156Z,125
2016-09-03T11:56:42.124Z,110
2016-09-03T11:57:42.120Z,100
2016-09-03T11:58:42.110Z,95
2016-09-03T11:59:42.819Z,90
2016-09-03T12:00:42.175Z,95
2016-09-03T12:01:42.806Z,115
2016-09-03T12:02:42.076Z,165
2016-09-03T12:03:40.629Z,310
2016-09-03T12:04:42.775Z,385
2016-09-03T12:05:42.064Z,375
2016-09-03T12:06:42.766Z,365
2016-09-03T12:07:42.046Z,360
2016-09-03T12:08:42.756Z,330
2016-09-03T12:09:39.866Z,200
2016-09-03T12:10:42.724Z,215
2016-09-03T12:11:42.717Z,275
2016-09-03T12:12:42.727Z,400
2016-09-03T12:13:42.007Z,370
2016-09-03T12:14:41.979Z,205
2016-09-03T12:15:41.969Z,175
2016-09-03T12:16:41.969Z,155
2016-09-03T12:17:42.664Z,135
2016-09-03T12:18:41.979Z,135
2016-09-03T12:19:41.930Z,140
2016-09-03T12:20:42.643Z,155
2016-09-03T12:21:41.903Z,165
2016-09-03T12:22:41.964Z,175
2016-09-03T12:23:42.616Z,280
2016-09-03T12:24:41.889Z,325
2016-09-03T12:25:42.588Z,385
2016-09-03T12:26:42.589Z,390
2016-09-03T12:27:41.123Z,380
2016-09-03T12:28:42.834Z,365
2016-09-03T12:29:41.836Z,350
2016-09-03T12:30:42.626Z,340
2016-09-03T12:31:42.547Z,320
2016-09-03T12:32:42.599Z,355
2016-09-03T12:33:42.535Z,215
2016-09-03T12:34:41.150Z,195
2016-09-03T12:35:41.786Z,190
2016-09-03T12:36:41.827Z,175
2016-09-03T12:37:42.506Z,160
2016-09-03T12:38:42.505Z,155
2016-09-03T12:39:42.477Z,145
2016-09-03T12:40:41.756Z,135
2016-09-03T12:41:41.732Z,125
2016-09-03T12:42:41.737Z,125
2016-09-03T12:43:41.715Z,130
2016-09-03T12:44:40.988Z,145
2016-09-03T12:45:41.707Z,145
2016-09-03T12:46:40.976Z,145
2016-09-03T12:47:42.419Z,145
2016-09-03T12:48:42.418Z,145
2016-09-03T12:49:41.010Z,155
2016-09-03T12:50:42.390Z,170
2016-09-03T12:51:42.367Z,205
2016-09-03T12:52:40.929Z,245
2016-09-03T12:53:41.630Z,205
2016-09-03T12:54:41.616Z,200
2016-09-03T12:55:41.602Z,200
2016-09-03T12:56:42.327Z,215
2016-09-03T12:57:42.307Z,335
2016-09-03T12:58:41.609Z,295
2016-09-03T12:59:41.574Z,310
2016-09-03T13:00:42.296Z,345
2016-09-03T13:01:42.286Z,335
2016-09-03T13:02:40.857Z,305
2016-09-03T13:03:40.854Z,235
2016-09-03T13:04:41.535Z,210
2016-09-03T13:05:41.541Z,295
2016-09-03T13:06:40.819Z,240
2016-09-03T13:07:40.873Z,245
2016-09-03T13:08:42.231Z,290
2016-09-03T13:09:41.516Z,275
2016-09-03T13:10:41.494Z,160
2016-09-03T13:11:40.775Z,155
2016-09-03T13:12:40.766Z,160
2016-09-03T13:13:42.268Z,160
2016-09-03T13:14:42.176Z,165
2016-09-03T13:15:40.029Z,285
2016-09-03T13:16:41.450Z,290
2016-09-03T13:17:42.156Z,290
2016-09-03T13:18:40.723Z,295
2016-09-03T13:19:42.208Z,305
2016-09-03T13:20:41.433Z,295
2016-09-03T13:21:42.158Z,305
2016-09-03T13:22:40.761Z,280
2016-09-03T13:23:42.114Z,170
2016-09-03T13:24:41.392Z,180
2016-09-03T13:25:40.663Z,175
2016-09-03T13:26:40.651Z,175
2016-09-03T13:27:41.387Z,175
2016-09-03T13:28:41.363Z,180
2016-09-03T13:29:41.346Z,195
2016-09-03T13:30:41.359Z,190
2016-09-03T13:31:41.330Z,260
2016-09-03T13:32:41.318Z,175
2016-09-03T13:33:40.606Z,165
2016-09-03T13:34:42.022Z,150
2016-09-03T13:35:42.036Z,160
2016-09-03T13:36:42.024Z,165
2016-09-03T13:37:40.562Z,275
2016-09-03T13:38:42.015Z,285
2016-09-03T13:39:40.574Z,275
2016-09-03T13:40:41.299Z,275
2016-09-03T13:41:41.268Z,275
2016-09-03T13:42:41.957Z,285
2016-09-03T13:43:41.315Z,280
2016-09-03T13:44:40.598Z,285
2016-09-03T13:45:41.234Z,280
2016-09-03T13:46:41.209Z,285
2016-09-03T13:47:41.213Z,220
2016-09-03T13:48:41.220Z,170
2016-09-03T13:49:40.558Z,205
2016-09-03T13:50:41.188Z,265
2016-09-03T13:51:41.180Z,175
2016-09-03T13:52:41.959Z,235
2016-09-03T13:53:41.874Z,255
2016-09-03T13:54:40.523Z,265
2016-09-03T13:55:41.863Z,270
2016-09-03T13:56:41.852Z,265
2016-09-03T13:57:40.446Z,255
2016-09-03T13:58:41.969Z,260
2016-09-03T13:59:40.486Z,280
2016-09-03T14:00:41.123Z,190
2016-09-03T14:01:39.717Z,175
2016-09-03T14:02:41.814Z,210
2016-09-03T14:03:40.392Z,250
2016-09-03T14:04:41.846Z,165
2016-09-03T14:05:41.794Z,140
2016-09-03T14:06:39.637Z,145
2016-09-03T14:07:41.047Z,150
2016-09-03T14:08:41.763Z,135
2016-09-03T14:09:39.604Z,245
2016-09-03T14:10:40.357Z,190
2016-09-03T14:11:41.033Z,180
2016-09-03T14:12:41.786Z,175